sensor_id;sensor_type;location;lat;lon;timestamp;P1;durP1;ratioP1;P2;durP2;ratioP2
68178;SDS011;69812;42.632;23.440;2023-07-31T18:15:22;5.05;;;3.45;;
68178;SDS011;69812;42.632;23.440;2023-07-31T18:17:50;4.55;;;3.50;;
68178;SDS011;69812;42.632;23.440;2023-07-31T18:20:17;5.18;;;3.80;;
68178;SDS011;69812;42.632;23.440;2023-07-31T18:22:46;5.68;;;4.07;;
68178;SDS011;69812;42.632;23.440;2023-07-31T18:25:13;5.70;;;3.60;;
68178;SDS011;69812;42.632;23.440;2023-07-31T18:27:48;5.63;;;3.88;;
68178;SDS011;69812;42.632;23.440;2023-07-31T18:30:13;8.48;;;4.03;;
68178;SDS011;69812;42.632;23.440;2023-07-31T18:32:41;6.15;;;4.15;;
68178;SDS011;69812;42.632;23.440;2023-07-31T18:35:06;6.70;;;4.13;;
68178;SDS011;69812;42.632;23.440;2023-07-31T18:37:37;5.15;;;4.10;;
68178;SDS011;69812;42.632;23.440;2023-07-31T18:40:05;8.00;;;4.40;;
68178;SDS011;69812;42.632;23.440;2023-07-31T18:42:31;5.28;;;4.05;;
68178;SDS011;69812;42.632;23.440;2023-07-31T18:44:57;5.88;;;3.92;;
68178;SDS011;69812;42.632;23.440;2023-07-31T18:47:22;5.18;;;3.90;;
68178;SDS011;69812;42.632;23.440;2023-07-31T18:49:47;6.65;;;4.30;;
68178;SDS011;69812;42.632;23.440;2023-07-31T18:52:13;6.72;;;4.15;;
68178;SDS011;69812;42.632;23.440;2023-07-31T18:54:38;5.30;;;3.60;;
68178;SDS011;69812;42.632;23.440;2023-07-31T18:57:04;5.30;;;3.95;;
68178;SDS011;69812;42.632;23.440;2023-07-31T18:59:35;7.53;;;4.10;;
68178;SDS011;69812;42.632;23.440;2023-07-31T19:02:02;5.85;;;4.00;;
68178;SDS011;69812;42.632;23.440;2023-07-31T19:04:33;6.45;;;4.50;;
68178;SDS011;69812;42.632;23.440;2023-07-31T19:06:59;5.43;;;3.83;;
68178;SDS011;69812;42.632;23.440;2023-07-31T19:09:33;6.22;;;4.15;;
68178;SDS011;69812;42.632;23.440;2023-07-31T19:12:04;6.35;;;4.28;;
68178;SDS011;69812;42.632;23.440;2023-07-31T19:14:39;7.38;;;3.90;;
68178;SDS011;69812;42.632;23.440;2023-07-31T19:17:07;7.13;;;4.72;;
68178;SDS011;69812;42.632;23.440;2023-07-31T19:19:37;5.53;;;4.05;;
68178;SDS011;69812;42.632;23.440;2023-07-31T19:22:03;7.63;;;4.45;;
68178;SDS011;69812;42.632;23.440;2023-07-31T19:24:30;6.05;;;4.07;;
68178;SDS011;69812;42.632;23.440;2023-07-31T19:26:56;8.60;;;4.70;;
68178;SDS011;69812;42.632;23.440;2023-07-31T19:29:21;8.98;;;4.00;;
68178;SDS011;69812;42.632;23.440;2023-07-31T19:31:49;5.53;;;3.85;;
68178;SDS011;69812;42.632;23.440;2023-07-31T19:34:17;5.57;;;4.20;;
68178;SDS011;69812;42.632;23.440;2023-07-31T19:36:46;5.60;;;4.22;;
68178;SDS011;69812;42.632;23.440;2023-07-31T19:39:14;10.30;;;4.40;;
68178;SDS011;69812;42.632;23.440;2023-07-31T19:41:39;8.75;;;4.03;;
68178;SDS011;69812;42.632;23.440;2023-07-31T19:44:07;10.23;;;5.40;;
68178;SDS011;69812;42.632;23.440;2023-07-31T19:46:35;7.30;;;4.45;;
68178;SDS011;69812;42.632;23.440;2023-07-31T19:49:01;6.07;;;3.58;;
68178;SDS011;69812;42.632;23.440;2023-07-31T19:51:29;7.38;;;4.32;;
68178;SDS011;69812;42.632;23.440;2023-07-31T19:53:54;9.85;;;4.38;;
68178;SDS011;69812;42.632;23.440;2023-07-31T19:56:22;9.98;;;5.15;;
68178;SDS011;69812;42.632;23.440;2023-07-31T19:58:48;14.02;;;5.57;;
68178;SDS011;69812;42.632;23.440;2023-07-31T20:01:13;9.30;;;4.50;;
68178;SDS011;69812;42.632;23.440;2023-07-31T20:03:38;10.32;;;4.93;;
68178;SDS011;69812;42.632;23.440;2023-07-31T20:06:06;10.00;;;4.75;;
68178;SDS011;69812;42.632;23.440;2023-07-31T20:08:31;7.80;;;4.57;;
68178;SDS011;69812;42.632;23.440;2023-07-31T20:10:57;7.55;;;3.80;;
68178;SDS011;69812;42.632;23.440;2023-07-31T20:13:27;9.77;;;3.75;;
68178;SDS011;69812;42.632;23.440;2023-07-31T20:15:56;7.18;;;3.80;;
68178;SDS011;69812;42.632;23.440;2023-07-31T20:18:21;6.95;;;3.92;;
68178;SDS011;69812;42.632;23.440;2023-07-31T20:20:50;6.68;;;3.75;;
68178;SDS011;69812;42.632;23.440;2023-07-31T20:23:25;6.97;;;3.78;;
68178;SDS011;69812;42.632;23.440;2023-07-31T20:26:02;6.43;;;3.33;;
68178;SDS011;69812;42.632;23.440;2023-07-31T20:28:27;6.43;;;3.38;;
68178;SDS011;69812;42.632;23.440;2023-07-31T20:30:55;6.13;;;3.10;;
68178;SDS011;69812;42.632;23.440;2023-07-31T20:33:28;4.70;;;2.90;;
68178;SDS011;69812;42.632;23.440;2023-07-31T20:35:53;7.97;;;3.60;;
68178;SDS011;69812;42.632;23.440;2023-07-31T20:38:18;6.97;;;3.47;;
68178;SDS011;69812;42.632;23.440;2023-07-31T20:40:51;5.72;;;3.25;;
68178;SDS011;69812;42.632;23.440;2023-07-31T20:43:17;8.45;;;3.90;;
68178;SDS011;69812;42.632;23.440;2023-07-31T20:45:44;5.40;;;3.08;;
68178;SDS011;69812;42.632;23.440;2023-07-31T20:48:15;5.28;;;3.10;;
68178;SDS011;69812;42.632;23.440;2023-07-31T20:50:40;5.47;;;3.38;;
68178;SDS011;69812;42.632;23.440;2023-07-31T20:53:06;7.53;;;4.03;;
68178;SDS011;69812;42.632;23.440;2023-07-31T20:55:37;4.53;;;2.78;;
68178;SDS011;69812;42.632;23.440;2023-07-31T20:58:09;6.70;;;3.28;;
68178;SDS011;69812;42.632;23.440;2023-07-31T21:00:35;10.00;;;3.95;;
68178;SDS011;69812;42.632;23.440;2023-07-31T21:03:03;6.75;;;2.50;;
68178;SDS011;69812;42.632;23.440;2023-07-31T21:05:29;4.68;;;2.88;;
68178;SDS011;69812;42.632;23.440;2023-07-31T21:07:54;4.30;;;2.65;;
68178;SDS011;69812;42.632;23.440;2023-07-31T21:10:22;4.45;;;2.45;;
68178;SDS011;69812;42.632;23.440;2023-07-31T21:12:50;3.80;;;2.60;;
68178;SDS011;69812;42.632;23.440;2023-07-31T21:15:19;4.13;;;2.30;;
68178;SDS011;69812;42.632;23.440;2023-07-31T21:17:46;4.03;;;2.15;;
68178;SDS011;69812;42.632;23.440;2023-07-31T21:20:12;4.47;;;2.40;;
68178;SDS011;69812;42.632;23.440;2023-07-31T21:22:38;3.47;;;1.90;;
68178;SDS011;69812;42.632;23.440;2023-07-31T21:25:03;3.90;;;1.85;;
68178;SDS011;69812;42.632;23.440;2023-07-31T21:27:32;6.55;;;2.50;;
68178;SDS011;69812;42.632;23.440;2023-07-31T21:30:00;4.70;;;2.10;;
68178;SDS011;69812;42.632;23.440;2023-07-31T21:32:27;5.93;;;1.88;;
68178;SDS011;69812;42.632;23.440;2023-07-31T21:34:58;5.05;;;2.05;;
68178;SDS011;69812;42.632;23.440;2023-07-31T21:37:24;3.40;;;1.90;;
68178;SDS011;69812;42.632;23.440;2023-07-31T21:39:52;3.28;;;2.10;;
68178;SDS011;69812;42.632;23.440;2023-07-31T21:42:20;2.92;;;1.92;;
68178;SDS011;69812;42.632;23.440;2023-07-31T21:44:48;3.00;;;1.88;;
68178;SDS011;69812;42.632;23.440;2023-07-31T21:47:13;2.97;;;1.90;;
68178;SDS011;69812;42.632;23.440;2023-07-31T21:49:39;3.60;;;1.95;;
68178;SDS011;69812;42.632;23.440;2023-07-31T21:52:06;3.55;;;2.10;;
68178;SDS011;69812;42.632;23.440;2023-07-31T21:54:35;2.90;;;1.83;;
68178;SDS011;69812;42.632;23.440;2023-07-31T21:57:00;3.55;;;2.05;;
68178;SDS011;69812;42.632;23.440;2023-07-31T21:59:27;4.28;;;1.98;;
68178;SDS011;69812;42.632;23.440;2023-07-31T22:01:56;3.38;;;2.10;;
68178;SDS011;69812;42.632;23.440;2023-07-31T22:04:24;2.72;;;2.05;;
68178;SDS011;69812;42.632;23.440;2023-07-31T22:06:57;2.80;;;2.45;;
68178;SDS011;69812;42.632;23.440;2023-07-31T22:09:25;6.95;;;2.55;;
68178;SDS011;69812;42.632;23.440;2023-07-31T22:11:50;2.88;;;2.22;;
68178;SDS011;69812;42.632;23.440;2023-07-31T22:14:15;6.35;;;2.70;;
68178;SDS011;69812;42.632;23.440;2023-07-31T22:16:41;3.90;;;2.58;;
68178;SDS011;69812;42.632;23.440;2023-07-31T22:19:09;4.70;;;2.42;;
68178;SDS011;69812;42.632;23.440;2023-07-31T22:21:45;6.07;;;3.05;;
68178;SDS011;69812;42.632;23.440;2023-07-31T22:24:13;4.45;;;2.95;;
68178;SDS011;69812;42.632;23.440;2023-07-31T22:27:03;7.35;;;3.70;;
68178;SDS011;69812;42.632;23.440;2023-07-31T22:29:40;4.38;;;3.22;;
68178;SDS011;69812;42.632;23.440;2023-07-31T22:32:10;6.30;;;4.68;;
68178;SDS011;69812;42.632;23.440;2023-07-31T22:34:36;6.75;;;4.15;;
68178;SDS011;69812;42.632;23.440;2023-07-31T22:37:14;6.78;;;4.30;;
68178;SDS011;69812;42.632;23.440;2023-07-31T22:39:39;3.95;;;3.13;;
68178;SDS011;69812;42.632;23.440;2023-07-31T22:42:07;4.13;;;3.00;;
68178;SDS011;69812;42.632;23.440;2023-07-31T22:44:47;5.22;;;3.10;;
68178;SDS011;69812;42.632;23.440;2023-07-31T22:47:12;4.55;;;3.22;;
68178;SDS011;69812;42.632;23.440;2023-07-31T22:49:43;4.53;;;3.08;;
68178;SDS011;69812;42.632;23.440;2023-07-31T22:52:21;5.90;;;3.30;;
68178;SDS011;69812;42.632;23.440;2023-07-31T22:54:46;4.63;;;3.38;;
68178;SDS011;69812;42.632;23.440;2023-07-31T22:57:14;5.80;;;3.55;;
68178;SDS011;69812;42.632;23.440;2023-07-31T22:59:40;4.88;;;3.65;;
68178;SDS011;69812;42.632;23.440;2023-07-31T23:02:08;5.18;;;3.70;;
68178;SDS011;69812;42.632;23.440;2023-07-31T23:04:36;6.00;;;3.40;;
68178;SDS011;69812;42.632;23.440;2023-07-31T23:07:05;7.85;;;4.03;;
68178;SDS011;69812;42.632;23.440;2023-07-31T23:09:33;5.20;;;4.05;;
68178;SDS011;69812;42.632;23.440;2023-07-31T23:12:19;5.22;;;3.95;;
68178;SDS011;69812;42.632;23.440;2023-07-31T23:14:51;5.75;;;4.03;;
68178;SDS011;69812;42.632;23.440;2023-07-31T23:17:19;7.95;;;4.70;;
68178;SDS011;69812;42.632;23.440;2023-07-31T23:19:52;7.57;;;4.53;;
68178;SDS011;69812;42.632;23.440;2023-07-31T23:22:22;7.72;;;4.25;;
68178;SDS011;69812;42.632;23.440;2023-07-31T23:24:51;5.88;;;3.45;;
68178;SDS011;69812;42.632;23.440;2023-07-31T23:27:46;4.57;;;3.33;;
68178;SDS011;69812;42.632;23.440;2023-07-31T23:30:15;4.97;;;3.53;;
68178;SDS011;69812;42.632;23.440;2023-07-31T23:32:50;4.72;;;3.17;;
68178;SDS011;69812;42.632;23.440;2023-07-31T23:35:16;4.22;;;2.92;;
68178;SDS011;69812;42.632;23.440;2023-07-31T23:37:46;5.50;;;3.60;;
68178;SDS011;69812;42.632;23.440;2023-07-31T23:40:14;5.13;;;3.03;;
68178;SDS011;69812;42.632;23.440;2023-07-31T23:42:45;5.43;;;3.47;;
68178;SDS011;69812;42.632;23.440;2023-07-31T23:45:23;3.97;;;3.00;;
68178;SDS011;69812;42.632;23.440;2023-07-31T23:47:57;4.55;;;3.55;;
68178;SDS011;69812;42.632;23.440;2023-07-31T23:50:27;6.28;;;3.67;;
68178;SDS011;69812;42.632;23.440;2023-07-31T23:53:01;7.30;;;3.28;;
68178;SDS011;69812;42.632;23.440;2023-07-31T23:55:34;4.28;;;3.22;;
68178;SDS011;69812;42.632;23.440;2023-07-31T23:58:02;5.75;;;3.00;;
